Oakdale, NE (68761)

5:02 PM CDT on October 23, 2014 (GMT -0500)
KNENELIG1 | Change Station
CLOSE
Current Station
Personal Weather Station
Location: Neligh, NE
Elevation: 1750 ft
Nearby Weather Stations

Elev 1750 ft 42.13 °N, 98.03 °W | Updated 2 minutes ago

Clear
Clear
70.3 °F
Feels Like 77 °F
N
4.0
Wind Variable Wind from South
Gusts 8.0 mph

Today
High -- | Low -- °F
--% Chance of Precip.
Yesterday
High -- | Low -- °F
Precip. -- in
7:53 AM 6:37 PM
New Moon, 0% visible
Pressure 29.99 in
Visibility 10.0 miles
Clouds Clear
Heat Index 77 °F
Dew Point 50 °F
Humidity 49%
Rainfall -999.00 in
Snow Depth Not available.
UV 1 out of 12
Pollen .90 out of 12
Air Quality Not available.
Flu Activity Sporadic
METAR KBVN 232155Z AUTO 20010KT 10SM CLR 20/10 A2999 RMK AO2 T01990099

More Conditions Fewer Conditions

Pressure 29.99 in
Visibility 10.0 miles
Clouds Clear
Heat Index 77 °F
Dew Point 50 °F
Humidity 49%
Rainfall -999.00 in
Snow Depth Not available.
UV 1 out of 12
Pollen .90 out of 12
Air Quality Not available.
Flu Activity Sporadic
METAR KBVN 232155Z AUTO 20010KT 10SM CLR 20/10 A2999 RMK AO2 T01990099

More Conditions Fewer Conditions

10-Day Weather Forecast

Almanac

Astronomy

Oct. 23, 2014 Rise Set
Actual Time 7:53 AM CDT 6:37 PM CDT
Civil Twilight 7:25 AM CDT 7:06 PM CDT
Nautical Twilight 6:52 AM CDT 7:38 PM CDT
Astronomical Twilight 6:20 AM CDT 8:11 PM CDT
Moon 7:34 AM CDT 6:40 PM CDT
Length of Visible Light 11h 41m
Length of Day
10h 44m
Tomorrow will be 2m 38s shorter.
New Moon, 0% of the Moon is Illuminated
Today
New Moon
Oct 30
First Quarter
Nov 6
Full
Nov 14
Last Quarter
Nov 22
New

Today's Extremes

State Highs State Lows

Community

WunderPhotos

Upload Photos

1,764,383 photos uploaded!

WunderBlogs® & News

Nearby

Snow Depth

Station Depth Elevation
No new snow has been reported.

Earthquake Activity

City Distance Mag. Time & Date
No recent earthquake activity has been reported nearby.
Minimum magnitude displayed is 2.5.

Coastal Water Temperatures

Place Temperature
No Stations Reporting

Nearby Weather Stations